Time;durP1;ratioP1;P1;durP2;ratioP2;P2;SDS_P1;SDS_P2;PMS_P1;PMS_P2;Temp;Humidity;BMP_temperature;BMP_pressure;BME280_temperature;BME280_humidity;BME280_pressure;Samples;Min_cycle;Max_cycle;Signal;HPM_P1;HPM_P2
2023/09/16 00:03:46;;;;;;;3.80;2.80;;;24.60;55.30;;;;;;229545;1248;22261;-61
2023/09/16 00:08:49;;;;;;;3.30;2.60;;;24.70;55.20;;;;;;229557;1248;23763;-60
2023/09/16 00:13:52;;;;;;;3.80;2.80;;;24.90;54.70;;;;;;229292;1251;227920;-61
2023/09/16 00:18:56;;;;;;;3.10;2.80;;;24.70;55.20;;;;;;229513;1248;23009;-60
2023/09/16 00:23:59;;;;;;;3.00;2.70;;;24.60;55.40;;;;;;229509;1254;22258;-61
2023/09/16 00:29:02;;;;;;;3.20;2.90;;;24.40;55.70;;;;;;229450;1248;22367;-61
2023/09/16 00:34:04;;;;;;;4.00;2.50;;;24.40;55.80;;;;;;229603;1251;22312;-61
2023/09/16 00:39:07;;;;;;;3.80;2.90;;;24.40;56.00;;;;;;229609;1248;22287;-61
2023/09/16 00:44:11;;;;;;;3.00;2.70;;;24.30;56.10;;;;;;229610;1249;23245;-61
2023/09/16 00:49:14;;;;;;;4.10;3.00;;;24.40;56.10;;;;;;229503;1252;22269;-61
2023/09/16 00:54:16;;;;;;;3.60;2.70;;;24.40;55.90;;;;;;229565;1247;22262;-61
2023/09/16 00:59:22;;;;;;;3.50;2.60;;;24.50;55.90;;;;;;229595;1249;22621;-61
2023/09/16 01:04:26;;;;;;;4.10;2.50;;;24.30;56.20;;;;;;229529;1263;22720;-61
2023/09/16 01:09:29;;;;;;;2.70;2.40;;;24.40;56.30;;;;;;229595;1249;22352;-61
2023/09/16 01:14:33;;;;;;;3.10;2.80;;;24.30;56.40;;;;;;229595;1249;22289;-61
2023/09/16 01:19:50;;;;;;;3.10;2.80;;;24.30;56.50;;;;;;229612;1263;22239;-61
2023/09/16 01:24:54;;;;;;;3.50;2.60;;;24.40;56.30;;;;;;229499;1249;22248;-61
2023/09/16 01:30:00;;;;;;;3.30;2.60;;;24.40;56.30;;;;;;229654;1263;22299;-61
2023/09/16 01:35:06;;;;;;;3.50;2.70;;;24.40;56.40;;;;;;229554;1248;23236;-61
2023/09/16 01:40:11;;;;;;;2.90;2.50;;;24.50;56.30;;;;;;229631;1247;23628;-61
2023/09/16 01:45:14;;;;;;;3.20;2.90;;;24.40;56.30;;;;;;229619;1251;22356;-61
2023/09/16 01:50:17;;;;;;;3.20;2.90;;;24.40;56.40;;;;;;229681;1247;22264;-60
2023/09/16 01:55:20;;;;;;;3.10;2.60;;;24.30;56.40;;;;;;229649;1247;22774;-60
2023/09/16 02:00:22;;;;;;;3.60;2.90;;;24.30;56.50;;;;;;229582;1249;22241;-60
2023/09/16 02:05:26;;;;;;;3.10;2.90;;;24.30;56.70;;;;;;229599;1247;22973;-60
2023/09/16 02:10:29;;;;;;;2.70;2.50;;;24.30;56.60;;;;;;229606;1247;22370;-61
2023/09/16 02:15:34;;;;;;;3.50;2.90;;;24.20;56.80;;;;;;229551;1249;22250;-60
2023/09/16 02:20:36;;;;;;;2.70;2.50;;;24.20;56.80;;;;;;229510;1249;22375;-61
2023/09/16 02:25:40;;;;;;;3.10;2.80;;;24.20;56.80;;;;;;229549;1247;22244;-60
2023/09/16 02:30:43;;;;;;;3.10;2.80;;;24.10;57.00;;;;;;229596;1248;22802;-60
2023/09/16 02:35:46;;;;;;;2.60;2.40;;;24.10;57.00;;;;;;229641;1247;22409;-60
2023/09/16 02:40:49;;;;;;;3.00;2.70;;;24.10;57.00;;;;;;229619;1247;22351;-60
2023/09/16 02:45:56;;;;;;;2.90;2.60;;;24.10;57.00;;;;;;229686;1249;22552;-61
2023/09/16 02:50:59;;;;;;;2.90;2.70;;;24.10;57.10;;;;;;229573;1248;22264;-60
2023/09/16 02:56:03;;;;;;;3.10;2.90;;;24.10;57.10;;;;;;229688;1247;22315;-61
2023/09/16 03:01:10;;;;;;;3.00;2.70;;;24.10;57.20;;;;;;229668;1248;22293;-60
2023/09/16 03:06:14;;;;;;;2.90;2.60;;;24.10;57.10;;;;;;229631;1248;23116;-61
2023/09/16 03:11:17;;;;;;;4.00;2.60;;;24.10;57.20;;;;;;229582;1247;22263;-60
2023/09/16 03:16:23;;;;;;;3.20;2.70;;;24.10;57.30;;;;;;229582;1253;22249;-61
2023/09/16 03:21:29;;;;;;;3.40;2.80;;;24.10;57.40;;;;;;229534;1248;22327;-61
2023/09/16 03:26:37;;;;;;;3.30;2.60;;;24.10;57.50;;;;;;229513;1248;22280;-60
2023/09/16 03:31:40;;;;;;;2.60;2.40;;;24.00;57.40;;;;;;229479;1247;22287;-61
2023/09/16 03:36:47;;;;;;;2.60;2.30;;;24.00;57.50;;;;;;229715;1249;22287;-60
2023/09/16 03:41:50;;;;;;;2.40;2.30;;;24.00;57.50;;;;;;229631;1248;22377;-60
2023/09/16 03:46:53;;;;;;;3.50;2.40;;;24.10;57.60;;;;;;229628;1248;22319;-60
2023/09/16 03:51:56;;;;;;;2.60;2.40;;;24.00;57.60;;;;;;229615;1247;22316;-60
2023/09/16 03:56:59;;;;;;;2.60;2.40;;;24.00;57.60;;;;;;229572;1248;22255;-61
2023/09/16 04:02:02;;;;;;;2.60;2.40;;;24.00;57.50;;;;;;229623;1248;22949;-60
2023/09/16 04:07:05;;;;;;;2.70;2.40;;;24.00;57.60;;;;;;229648;1249;22280;-60
2023/09/16 04:12:08;;;;;;;3.20;2.80;;;24.00;57.60;;;;;;229641;1248;23986;-60
2023/09/16 04:17:12;;;;;;;2.70;2.50;;;24.00;57.60;;;;;;229595;1249;22296;-61
2023/09/16 04:22:15;;;;;;;2.50;2.30;;;23.90;57.70;;;;;;229592;1263;22279;-61
2023/09/16 04:27:18;;;;;;;3.30;2.20;;;23.90;57.70;;;;;;229547;1249;22256;-61
2023/09/16 04:32:21;;;;;;;3.20;2.90;;;24.00;57.70;;;;;;229549;1250;22391;-61
2023/09/16 04:37:25;;;;;;;2.70;2.50;;;24.00;57.70;;;;;;229543;1263;22351;-61
2023/09/16 04:42:30;;;;;;;3.20;2.50;;;23.90;57.80;;;;;;229583;1263;22248;-60
2023/09/16 04:47:36;;;;;;;3.50;2.80;;;23.90;57.80;;;;;;229424;1263;22333;-60
2023/09/16 04:52:39;;;;;;;2.60;2.20;;;23.90;57.90;;;;;;229479;1263;22338;-61
2023/09/16 04:57:42;;;;;;;2.40;2.20;;;23.90;57.90;;;;;;229396;1263;23125;-60
2023/09/16 05:02:48;;;;;;;2.80;2.60;;;23.90;57.90;;;;;;229571;1251;22248;-60
2023/09/16 05:07:51;;;;;;;2.80;2.60;;;23.90;58.00;;;;;;229521;1255;22995;-60
2023/09/16 05:12:53;;;;;;;2.50;2.30;;;23.90;57.90;;;;;;229546;1252;23400;-61
2023/09/16 05:18:01;;;;;;;3.10;2.60;;;23.90;58.00;;;;;;229644;1262;22281;-60
2023/09/16 05:23:08;;;;;;;2.30;2.20;;;23.90;58.00;;;;;;229563;1250;22209;-61
2023/09/16 05:28:12;;;;;;;2.40;2.20;;;23.90;58.00;;;;;;229547;1263;22377;-60
2023/09/16 05:33:15;;;;;;;2.50;2.30;;;23.90;58.00;;;;;;229556;1260;22291;-61
2023/09/16 05:38:18;;;;;;;2.50;2.30;;;23.90;58.50;;;;;;229540;1263;22410;-61
2023/09/16 05:43:22;;;;;;;2.80;2.40;;;23.90;58.00;;;;;;229609;1256;22271;-61
2023/09/16 05:48:24;;;;;;;2.60;2.40;;;23.80;58.00;;;;;;229563;1247;22250;-60
2023/09/16 05:53:29;;;;;;;3.00;2.70;;;23.90;58.60;;;;;;229591;1263;22307;-60
2023/09/16 05:58:35;;;;;;;2.40;2.20;;;23.90;58.20;;;;;;229543;1249;22352;-60
2023/09/16 06:03:38;;;;;;;3.40;2.90;;;23.90;58.30;;;;;;229543;1263;23307;-60
2023/09/16 06:08:42;;;;;;;2.70;2.50;;;23.90;58.20;;;;;;229596;1248;22243;-60
2023/09/16 06:13:44;;;;;;;3.10;2.80;;;23.90;58.40;;;;;;229437;1263;22354;-60
2023/09/16 06:18:47;;;;;;;6.00;2.90;;;23.90;57.60;;;;;;229622;1263;22376;-59
2023/09/16 06:23:51;;;;;;;2.80;2.40;;;23.90;57.50;;;;;;229565;1263;22299;-60
2023/09/16 06:28:54;;;;;;;14.80;2.90;;;24.00;57.50;;;;;;229567;1248;22677;-61
2023/09/16 06:33:56;;;;;;;2.90;2.50;;;24.10;58.20;;;;;;229558;1255;22282;-60
2023/09/16 06:39:01;;;;;;;3.20;2.40;;;24.10;57.90;;;;;;229488;1249;22307;-60
2023/09/16 06:44:04;;;;;;;3.10;2.50;;;24.30;57.70;;;;;;229490;1252;23388;-53
2023/09/16 06:49:07;;;;;;;6.80;2.60;;;24.40;57.90;;;;;;229515;1263;22279;-54
2023/09/16 06:54:09;;;;;;;11.00;2.60;;;24.40;57.90;;;;;;229555;1248;22254;-55
2023/09/16 06:59:12;;;;;;;5.30;2.60;;;24.20;58.00;;;;;;229319;1254;22270;-55
2023/09/16 07:04:15;;;;;;;13.10;3.90;;;24.20;58.20;;;;;;229534;1264;22307;-53
2023/09/16 07:09:18;;;;;;;3.70;3.10;;;24.30;59.50;;;;;;229565;1248;22275;-55
2023/09/16 07:14:22;;;;;;;5.40;3.20;;;24.20;59.60;;;;;;229566;1249;22956;-57
2023/09/16 07:19:24;;;;;;;6.30;3.40;;;24.20;59.40;;;;;;229616;1263;22369;-57
2023/09/16 07:24:28;;;;;;;7.20;3.20;;;24.00;59.40;;;;;;229512;1255;22279;-57
2023/09/16 07:29:31;;;;;;;6.20;3.20;;;24.10;58.90;;;;;;229554;1261;22258;-57
2023/09/16 07:34:34;;;;;;;21.30;5.50;;;24.10;59.00;;;;;;229537;1263;22279;-56
2023/09/16 07:39:37;;;;;;;7.30;3.40;;;24.10;58.80;;;;;;229568;1251;22976;-57
2023/09/16 07:44:40;;;;;;;5.90;3.40;;;24.10;58.10;;;;;;229528;1249;22361;-57
2023/09/16 07:49:43;;;;;;;8.50;4.60;;;24.10;56.50;;;;;;229587;1252;22340;-56
2023/09/16 07:54:47;;;;;;;4.70;3.60;;;23.90;55.90;;;;;;229575;1249;22890;-55
2023/09/16 07:59:50;;;;;;;6.70;3.40;;;23.70;55.30;;;;;;229498;1263;22252;-56
2023/09/16 08:04:52;;;;;;;5.80;4.00;;;23.40;55.20;;;;;;229609;1252;22371;-55
2023/09/16 08:09:56;;;;;;;10.30;4.80;;;23.40;55.70;;;;;;229538;1256;22278;-57
2023/09/16 08:15:02;;;;;;;8.40;3.40;;;23.40;55.50;;;;;;229362;1263;22298;-57
2023/09/16 08:20:07;;;;;;;10.70;4.10;;;23.30;55.70;;;;;;229495;1255;22325;-59
2023/09/16 08:25:09;;;;;;;4.00;3.50;;;23.30;56.40;;;;;;229564;1264;24050;-58
2023/09/16 08:30:12;;;;;;;3.40;3.10;;;23.40;55.80;;;;;;229574;1263;22271;-58
2023/09/16 08:35:15;;;;;;;5.00;3.40;;;23.30;55.70;;;;;;229601;1264;22256;-58
2023/09/16 08:40:17;;;;;;;6.30;4.00;;;23.30;55.90;;;;;;229531;1255;22251;-57
2023/09/16 08:45:25;;;;;;;6.10;4.20;;;23.60;55.60;;;;;;229563;1249;22764;-57
2023/09/16 08:50:30;;;;;;;6.00;4.40;;;23.80;56.20;;;;;;229640;1263;22320;-57
2023/09/16 08:55:35;;;;;;;6.00;4.40;;;24.30;57.50;;;;;;229518;1252;22277;-59
2023/09/16 09:00:37;;;;;;;9.50;4.30;;;24.20;57.60;;;;;;229561;1263;22795;-58
2023/09/16 09:05:42;;;;;;;7.80;4.00;;;24.30;56.60;;;;;;229590;1251;24188;-61
2023/09/16 09:10:46;;;;;;;9.40;4.20;;;24.30;56.80;;;;;;229542;1252;23236;-61
2023/09/16 09:15:51;;;;;;;4.60;3.90;;;24.80;55.20;;;;;;229508;1252;22410;-58
2023/09/16 09:20:54;;;;;;;12.70;4.30;;;24.70;55.60;;;;;;229485;1260;22257;-59
2023/09/16 09:25:57;;;;;;;6.60;4.30;;;24.50;56.00;;;;;;229425;1263;23078;-59
2023/09/16 09:31:00;;;;;;;5.50;4.00;;;24.70;55.10;;;;;;229432;1256;22471;-59
2023/09/16 09:36:33;;;;;;;7.50;3.50;;;24.90;55.00;;;;;;229422;1248;22280;-56
2023/09/16 09:41:46;;;;;;;4.70;3.60;;;24.90;55.00;;;;;;229499;1260;22271;-59
2023/09/16 09:46:49;;;;;;;4.80;3.70;;;24.90;55.00;;;;;;229617;1252;23330;-59
2023/09/16 09:51:52;;;;;;;4.00;3.60;;;25.00;54.70;;;;;;229554;1251;22352;-60
2023/09/16 09:56:54;;;;;;;5.60;4.30;;;25.00;54.90;;;;;;229574;1252;22282;-58
2023/09/16 10:02:02;;;;;;;6.40;3.50;;;25.00;54.90;;;;;;229592;1252;22427;-59
2023/09/16 10:07:08;;;;;;;4.30;3.60;;;25.10;54.80;;;;;;229605;1248;22274;-58
2023/09/16 10:12:11;;;;;;;4.40;3.50;;;25.10;54.90;;;;;;229540;1249;22288;-59
2023/09/16 10:17:15;;;;;;;6.60;3.70;;;25.10;54.80;;;;;;229475;1263;22259;-59
2023/09/16 10:22:18;;;;;;;3.40;3.10;;;25.20;54.70;;;;;;229636;1252;22249;-59
2023/09/16 10:27:27;;;;;;;6.20;3.60;;;25.20;54.60;;;;;;229576;1257;22325;-59
2023/09/16 10:32:29;;;;;;;4.60;3.00;;;25.20;54.60;;;;;;229584;1251;23163;-59
2023/09/16 10:37:33;;;;;;;4.90;3.20;;;25.30;54.60;;;;;;229579;1250;22306;-59
2023/09/16 10:42:37;;;;;;;5.90;3.10;;;25.40;54.50;;;;;;229482;1249;23089;-58
2023/09/16 10:47:40;;;;;;;3.80;3.30;;;25.40;54.50;;;;;;229594;1248;22252;-60
2023/09/16 10:53:02;;;;;;;3.80;2.90;;;25.40;54.60;;;;;;229624;1249;22255;-59
2023/09/16 10:58:31;;;;;;;4.50;3.20;;;25.40;54.60;;;;;;229662;1252;23427;-59
2023/09/16 11:03:39;;;;;;;3.60;3.20;;;25.50;54.50;;;;;;229605;1252;22268;-59
2023/09/16 11:08:42;;;;;;;3.20;2.90;;;25.50;54.50;;;;;;229640;1250;23109;-60
2023/09/16 11:13:45;;;;;;;4.70;3.20;;;25.60;54.30;;;;;;229647;1248;23163;-59
2023/09/16 11:18:51;;;;;;;4.30;3.00;;;25.60;54.60;;;;;;229627;1248;22293;-58
2023/09/16 11:23:54;;;;;;;3.30;3.00;;;25.70;54.50;;;;;;229646;1249;22724;-59
2023/09/16 11:28:56;;;;;;;3.20;2.90;;;25.60;54.50;;;;;;229683;1252;22331;-59
2023/09/16 11:34:00;;;;;;;3.10;2.80;;;25.70;54.50;;;;;;229604;1247;23305;-60
2023/09/16 11:39:11;;;;;;;3.80;3.20;;;25.60;54.50;;;;;;229569;1251;22277;-58
2023/09/16 11:44:15;;;;;;;4.20;3.50;;;25.70;54.40;;;;;;229586;1249;22297;-60
2023/09/16 11:49:20;;;;;;;3.10;2.80;;;25.70;54.50;;;;;;229606;1247;22444;-59
2023/09/16 11:54:23;;;;;;;2.90;2.70;;;25.70;54.40;;;;;;229614;1249;22332;-60
2023/09/16 11:59:26;;;;;;;3.70;3.00;;;25.80;54.60;;;;;;229602;1247;22277;-59
2023/09/16 12:04:30;;;;;;;3.30;3.00;;;25.80;54.40;;;;;;229672;1248;22999;-60
2023/09/16 12:09:33;;;;;;;2.90;2.70;;;25.80;54.50;;;;;;229582;1252;22267;-59
2023/09/16 12:14:36;;;;;;;3.00;2.80;;;25.70;54.70;;;;;;229461;1252;226839;-59
2023/09/16 12:19:51;;;;;;;3.30;3.00;;;25.80;54.50;;;;;;229619;1252;22348;-60
2023/09/16 12:24:57;;;;;;;3.10;2.90;;;25.80;54.70;;;;;;229559;1252;22322;-60
2023/09/16 12:30:00;;;;;;;3.50;2.70;;;25.80;54.40;;;;;;229585;1263;22377;-59
2023/09/16 12:35:08;;;;;;;4.70;2.90;;;25.80;54.50;;;;;;229544;1252;22298;-59
2023/09/16 12:40:11;;;;;;;3.70;2.60;;;25.80;54.60;;;;;;229596;1263;22273;-59
2023/09/16 12:45:14;;;;;;;2.90;2.70;;;25.80;54.70;;;;;;229490;1263;23045;-58
2023/09/16 12:50:18;;;;;;;2.80;2.60;;;25.90;54.60;;;;;;229550;1263;22308;-60
2023/09/16 12:55:25;;;;;;;2.90;2.70;;;26.00;54.40;;;;;;229571;1249;22257;-60
2023/09/16 13:00:28;;;;;;;3.00;2.70;;;25.90;54.40;;;;;;229646;1251;22347;-60
2023/09/16 13:05:30;;;;;;;2.80;2.60;;;26.00;54.40;;;;;;229551;1264;22241;-60
2023/09/16 13:10:34;;;;;;;2.90;2.60;;;26.00;54.40;;;;;;229576;1252;22281;-59
2023/09/16 13:15:42;;;;;;;3.00;2.80;;;26.00;54.40;;;;;;229560;1252;22353;-60
2023/09/16 13:20:45;;;;;;;2.80;2.60;;;26.00;54.50;;;;;;229514;1251;22368;-60
2023/09/16 13:25:48;;;;;;;2.50;2.30;;;26.00;54.40;;;;;;229491;1263;22615;-60
2023/09/16 13:30:55;;;;;;;3.00;2.80;;;26.00;54.40;;;;;;229513;1263;22428;-60
2023/09/16 13:35:59;;;;;;;2.80;2.60;;;26.00;54.30;;;;;;229516;1263;24133;-59
2023/09/16 13:41:02;;;;;;;2.70;2.50;;;26.00;54.30;;;;;;229552;1257;22561;-60
2023/09/16 13:46:05;;;;;;;2.50;2.30;;;26.10;54.30;;;;;;229563;1252;22324;-60
2023/09/16 13:51:08;;;;;;;2.60;2.40;;;26.10;54.20;;;;;;229552;1252;22274;-60
2023/09/16 13:56:12;;;;;;;3.30;2.70;;;26.10;54.20;;;;;;229601;1264;23335;-60
2023/09/16 14:01:15;;;;;;;2.80;2.60;;;26.10;54.30;;;;;;229518;1257;22682;-59
2023/09/16 14:06:18;;;;;;;2.90;2.70;;;26.10;54.30;;;;;;229532;1264;22283;-60
2023/09/16 14:11:21;;;;;;;3.00;2.50;;;26.10;54.30;;;;;;229586;1253;22270;-60
2023/09/16 14:16:24;;;;;;;2.60;2.20;;;26.10;54.40;;;;;;229576;1251;22254;-59
2023/09/16 14:21:27;;;;;;;2.70;2.50;;;26.10;54.30;;;;;;229579;1252;23037;-60
2023/09/16 14:26:30;;;;;;;2.90;2.70;;;26.10;54.40;;;;;;229586;1263;22267;-60
2023/09/16 14:31:33;;;;;;;3.00;2.80;;;26.10;54.30;;;;;;229594;1254;22279;-59
2023/09/16 14:36:37;;;;;;;2.90;2.70;;;26.00;54.40;;;;;;229547;1263;22291;-60
2023/09/16 14:41:40;;;;;;;2.80;2.60;;;26.00;54.50;;;;;;229552;1263;23136;-60
2023/09/16 14:46:43;;;;;;;2.70;2.50;;;26.00;54.40;;;;;;229581;1264;22423;-60
2023/09/16 14:51:50;;;;;;;2.60;2.40;;;26.00;54.60;;;;;;229555;1251;23101;-60
2023/09/16 14:56:54;;;;;;;2.40;2.30;;;26.00;54.60;;;;;;229638;1261;22943;-58
2023/09/16 15:01:58;;;;;;;3.00;2.80;;;25.90;54.60;;;;;;229564;1251;22269;-59
2023/09/16 15:07:03;;;;;;;2.50;2.40;;;25.90;54.70;;;;;;229572;1253;22253;-59
2023/09/16 15:12:06;;;;;;;3.10;2.90;;;25.90;54.80;;;;;;229530;1263;22276;-58
2023/09/16 15:17:09;;;;;;;3.30;3.00;;;25.90;54.90;;;;;;229563;1262;22276;-60
2023/09/16 15:22:13;;;;;;;2.70;2.50;;;25.90;54.80;;;;;;229562;1263;22806;-60
2023/09/16 15:27:15;;;;;;;3.10;2.90;;;25.90;54.90;;;;;;229624;1248;22300;-60
2023/09/16 15:32:19;;;;;;;3.20;3.00;;;25.80;54.90;;;;;;229502;1264;22290;-60
2023/09/16 15:37:25;;;;;;;2.80;2.60;;;25.70;55.00;;;;;;229657;1251;22263;-59
2023/09/16 15:42:28;;;;;;;3.00;2.70;;;25.70;55.00;;;;;;229560;1263;22267;-60
2023/09/16 15:47:31;;;;;;;2.80;2.60;;;25.70;55.60;;;;;;229588;1251;22273;-60
2023/09/16 15:52:35;;;;;;;3.00;2.80;;;25.70;55.10;;;;;;229606;1251;22240;-60
2023/09/16 15:57:39;;;;;;;4.20;2.50;;;25.70;55.20;;;;;;229610;1264;22267;-60
2023/09/16 16:02:44;;;;;;;3.10;2.60;;;25.60;55.20;;;;;;229605;1247;22255;-60
2023/09/16 16:07:48;;;;;;;3.20;2.90;;;25.60;55.20;;;;;;229604;1253;22284;-60
2023/09/16 16:12:51;;;;;;;3.30;2.90;;;25.60;55.20;;;;;;229611;1249;23024;-61
2023/09/16 16:17:54;;;;;;;4.90;3.00;;;25.60;55.30;;;;;;229622;1258;22350;-60
2023/09/16 16:22:57;;;;;;;3.30;3.10;;;25.50;55.50;;;;;;229598;1251;22956;-59
2023/09/16 16:28:00;;;;;;;4.20;2.70;;;25.50;55.40;;;;;;229631;1263;22271;-61
2023/09/16 16:33:04;;;;;;;3.60;3.30;;;25.50;55.50;;;;;;229569;1247;22250;-60
2023/09/16 16:38:07;;;;;;;3.30;3.00;;;25.50;55.60;;;;;;229594;1254;23174;-61
2023/09/16 16:43:12;;;;;;;3.30;3.10;;;25.40;55.60;;;;;;229610;1263;22722;-61
2023/09/16 16:48:15;;;;;;;3.10;2.80;;;25.40;55.70;;;;;;229511;1253;22284;-61
2023/09/16 16:53:18;;;;;;;3.30;3.00;;;25.40;55.80;;;;;;229592;1263;22347;-61
2023/09/16 16:58:22;;;;;;;3.50;3.20;;;25.40;55.80;;;;;;229599;1263;22312;-60
2023/09/16 17:03:25;;;;;;;2.80;2.60;;;25.40;55.90;;;;;;221844;1263;24302;-60
2023/09/16 17:08:29;;;;;;;3.10;2.80;;;25.40;56.00;;;;;;229584;1263;22254;-61
2023/09/16 17:13:32;;;;;;;3.10;2.90;;;25.30;56.10;;;;;;229486;1251;22463;-60
2023/09/16 17:18:35;;;;;;;3.10;2.80;;;25.30;55.90;;;;;;229519;1263;22300;-61
2023/09/16 17:23:40;;;;;;;4.90;3.50;;;25.30;56.00;;;;;;229571;1251;22919;-61
2023/09/16 17:28:43;;;;;;;3.90;3.20;;;25.30;56.00;;;;;;229542;1263;22340;-61
2023/09/16 17:33:49;;;;;;;4.00;3.70;;;25.30;55.90;;;;;;229577;1263;22357;-60
2023/09/16 17:38:52;;;;;;;3.30;3.00;;;25.20;55.90;;;;;;229591;1263;22284;-60
2023/09/16 17:43:56;;;;;;;4.00;3.60;;;25.20;56.00;;;;;;229631;1255;22325;-60
2023/09/16 17:48:59;;;;;;;3.70;3.30;;;25.20;56.20;;;;;;229582;1263;22329;-61
2023/09/16 17:54:03;;;;;;;4.90;3.80;;;25.20;56.20;;;;;;229616;1263;23490;-61
2023/09/16 17:59:10;;;;;;;4.90;4.50;;;25.20;56.20;;;;;;229566;1252;22332;-60
2023/09/16 18:04:14;;;;;;;4.90;4.50;;;25.20;56.20;;;;;;229575;1263;22265;-61
2023/09/16 18:09:17;;;;;;;4.50;4.20;;;25.20;56.20;;;;;;229615;1248;22267;-61
2023/09/16 18:14:21;;;;;;;5.50;5.00;;;25.20;56.20;;;;;;229609;1251;22281;-60
2023/09/16 18:19:25;;;;;;;5.40;4.80;;;25.10;56.20;;;;;;229547;1263;22300;-61
2023/09/16 18:24:28;;;;;;;5.30;4.90;;;25.20;56.20;;;;;;229650;1248;22277;-61
2023/09/16 18:29:35;;;;;;;5.20;4.70;;;25.20;56.10;;;;;;229566;1249;22337;-61
2023/09/16 18:34:40;;;;;;;6.50;4.60;;;25.20;56.10;;;;;;229579;1248;23035;-60
2023/09/16 18:39:44;;;;;;;4.90;4.40;;;25.20;56.10;;;;;;229295;1249;24191;-60
2023/09/16 18:44:48;;;;;;;6.30;5.10;;;25.20;56.20;;;;;;229608;1247;24130;-61
2023/09/16 18:49:54;;;;;;;5.40;4.90;;;25.20;56.20;;;;;;229599;1263;22371;-60
2023/09/16 18:54:58;;;;;;;5.20;4.70;;;25.10;56.20;;;;;;229631;1248;22305;-61
2023/09/16 19:00:06;;;;;;;6.20;5.00;;;25.10;56.20;;;;;;229632;1251;22294;-61
2023/09/16 19:05:11;;;;;;;5.70;5.10;;;25.10;56.40;;;;;;229624;1249;22362;-60
2023/09/16 19:10:16;;;;;;;5.30;4.80;;;25.10;56.30;;;;;;229645;1248;22276;-61
2023/09/16 19:15:22;;;;;;;5.60;5.10;;;25.10;56.40;;;;;;229626;1248;22282;-61
2023/09/16 19:20:27;;;;;;;5.50;5.00;;;25.10;56.50;;;;;;229675;1247;22258;-59
2023/09/16 19:25:31;;;;;;;5.60;5.20;;;25.10;57.00;;;;;;229625;1247;23092;-60
2023/09/16 19:30:34;;;;;;;5.70;5.20;;;25.10;56.50;;;;;;229658;1248;22394;-60
2023/09/16 19:35:40;;;;;;;5.80;5.30;;;25.00;56.50;;;;;;229625;1263;22265;-61
2023/09/16 19:40:46;;;;;;;5.60;5.10;;;25.10;56.50;;;;;;229621;1256;22279;-61
2023/09/16 19:46:05;;;;;;;5.90;5.40;;;25.00;56.60;;;;;;229590;1248;22696;-61
2023/09/16 19:51:10;;;;;;;5.90;5.40;;;25.00;56.60;;;;;;229619;1247;22263;-61
2023/09/16 19:56:14;;;;;;;5.30;4.90;;;25.00;56.80;;;;;;229626;1249;22716;-60
2023/09/16 20:01:20;;;;;;;5.80;5.10;;;25.00;56.70;;;;;;229601;1249;22276;-61
2023/09/16 20:06:23;;;;;;;6.30;5.30;;;24.90;56.70;;;;;;229564;1248;22249;-61
2023/09/16 20:11:30;;;;;;;6.10;5.60;;;24.90;56.90;;;;;;229612;1249;22275;-60
2023/09/16 20:16:35;;;;;;;5.70;5.20;;;24.90;56.80;;;;;;229635;1248;23012;-61
2023/09/16 20:21:39;;;;;;;5.60;5.10;;;24.90;57.50;;;;;;224885;1247;23050;-60
2023/09/16 20:26:43;;;;;;;6.20;5.10;;;24.90;57.30;;;;;;229564;1248;22388;-60
2023/09/16 20:31:47;;;;;;;7.40;5.60;;;24.80;57.10;;;;;;229688;1248;23570;-60
2023/09/16 20:36:52;;;;;;;6.40;5.30;;;24.90;57.10;;;;;;229479;1249;22285;-60
2023/09/16 20:41:55;;;;;;;11.40;5.50;;;24.90;57.10;;;;;;229601;1247;23123;-61
2023/09/16 20:47:03;;;;;;;6.90;5.30;;;24.80;57.30;;;;;;229530;1248;22325;-63
2023/09/16 20:52:07;;;;;;;5.70;5.20;;;24.90;57.40;;;;;;229633;1249;22676;-62
2023/09/16 20:57:10;;;;;;;7.40;5.80;;;24.90;57.70;;;;;;229673;1248;22293;-60
2023/09/16 21:02:13;;;;;;;7.30;5.50;;;25.00;57.60;;;;;;229645;1247;22287;-63
2023/09/16 21:07:16;;;;;;;11.40;6.10;;;24.90;57.70;;;;;;229597;1248;22278;-59
2023/09/16 21:12:19;;;;;;;6.30;5.70;;;24.80;57.90;;;;;;229586;1263;23228;-59
2023/09/16 21:17:22;;;;;;;6.90;6.30;;;24.80;58.30;;;;;;229584;1263;22333;-60
2023/09/16 21:22:26;;;;;;;13.10;6.90;;;24.80;58.50;;;;;;229620;1260;22256;-60
2023/09/16 21:27:29;;;;;;;12.10;6.60;;;24.80;59.50;;;;;;229578;1263;22270;-60
2023/09/16 21:32:32;;;;;;;7.60;6.60;;;24.80;59.40;;;;;;229603;1248;22256;-60
2023/09/16 21:37:35;;;;;;;11.70;6.90;;;24.60;59.80;;;;;;229573;1248;22275;-64
2023/09/16 21:42:37;;;;;;;10.20;6.50;;;24.60;60.00;;;;;;229580;1263;22258;-67
2023/09/16 21:47:40;;;;;;;10.20;7.20;;;24.70;60.40;;;;;;229546;1263;22266;-64
2023/09/16 21:52:44;;;;;;;7.60;5.70;;;24.70;60.70;;;;;;229603;1259;22323;-65
2023/09/16 21:57:47;;;;;;;8.00;6.50;;;24.70;60.00;;;;;;229484;1263;22290;-65
2023/09/16 22:02:50;;;;;;;7.10;6.40;;;24.70;60.10;;;;;;229483;1248;22345;-65
2023/09/16 22:07:53;;;;;;;7.70;6.00;;;24.70;60.40;;;;;;229537;1263;22357;-65
2023/09/16 22:12:56;;;;;;;10.10;6.50;;;24.70;60.30;;;;;;229605;1251;22291;-64
2023/09/16 22:17:59;;;;;;;9.70;6.30;;;24.70;60.30;;;;;;229521;1263;22291;-64
2023/09/16 22:23:01;;;;;;;10.20;6.70;;;24.70;60.30;;;;;;229601;1251;23040;-63
2023/09/16 22:28:04;;;;;;;9.10;7.50;;;24.70;60.50;;;;;;229583;1263;22261;-64
2023/09/16 22:33:07;;;;;;;9.80;6.30;;;24.70;61.40;;;;;;229537;1255;22666;-64
2023/09/16 22:38:09;;;;;;;12.90;6.90;;;24.70;60.40;;;;;;229596;1263;22324;-65
2023/09/16 22:43:12;;;;;;;9.50;6.70;;;24.60;60.60;;;;;;229597;1249;22276;-65
2023/09/16 22:48:15;;;;;;;8.60;6.40;;;24.60;60.40;;;;;;229472;1263;22927;-65
2023/09/16 22:53:18;;;;;;;8.50;6.40;;;24.60;60.30;;;;;;229521;1248;22338;-63
2023/09/16 22:58:20;;;;;;;7.00;6.20;;;24.50;60.30;;;;;;229476;1252;22939;-63
2023/09/16 23:03:23;;;;;;;6.40;5.70;;;24.50;60.20;;;;;;229584;1251;22425;-64
2023/09/16 23:08:27;;;;;;;6.50;5.80;;;24.50;60.30;;;;;;229631;1247;22709;-64
2023/09/16 23:13:29;;;;;;;8.60;6.60;;;24.50;60.10;;;;;;229589;1248;22300;-64
2023/09/16 23:18:32;;;;;;;8.90;5.90;;;24.50;60.20;;;;;;226705;1263;22536;-64
2023/09/16 23:23:35;;;;;;;6.40;5.80;;;24.50;60.50;;;;;;229577;1248;22430;-63
2023/09/16 23:28:37;;;;;;;6.50;5.50;;;24.50;60.20;;;;;;229607;1249;22956;-63
2023/09/16 23:33:41;;;;;;;7.10;6.40;;;24.50;60.10;;;;;;229606;1251;22236;-64
2023/09/16 23:38:44;;;;;;;6.30;5.80;;;24.50;60.10;;;;;;229602;1251;22981;-64
2023/09/16 23:43:46;;;;;;;8.60;6.20;;;24.50;60.10;;;;;;229586;1263;22381;-63
2023/09/16 23:48:49;;;;;;;6.70;6.10;;;24.50;60.00;;;;;;229524;1249;22263;-65
2023/09/16 23:53:52;;;;;;;6.00;5.40;;;24.50;60.00;;;;;;224798;1247;25474;-63
2023/09/16 23:58:55;;;;;;;6.60;5.70;;;24.50;60.10;;;;;;229678;1252;22281;-64
